createdAt,value
2017-01-27T00:00:17.317Z,-1.83
2017-01-27T00:01:17.291Z,-1.67
2017-01-27T00:02:17.260Z,-1.62
2017-01-27T00:03:16.864Z,-1.68
2017-01-27T00:04:17.244Z,-1.7
2017-01-27T00:05:17.212Z,-1.67
2017-01-27T00:06:16.813Z,-1.65
2017-01-27T00:07:17.194Z,-1.75
2017-01-27T00:08:17.166Z,-1.95
2017-01-27T00:09:16.765Z,-2.04
2017-01-27T00:10:17.130Z,-2.22
2017-01-27T00:11:17.121Z,-2.04
2017-01-27T00:12:16.697Z,-2.06
2017-01-27T00:13:17.076Z,-1.9
2017-01-27T00:14:17.080Z,-1.82
2017-01-27T00:15:17.041Z,-1.67
2017-01-27T00:16:17.022Z,-1.68
2017-01-27T00:17:16.610Z,-1.54
2017-01-27T00:18:17.013Z,-1.5
2017-01-27T00:19:16.583Z,-1.59
2017-01-27T00:20:16.963Z,-1.77
2017-01-27T00:21:16.926Z,-1.83
2017-01-27T00:22:16.927Z,-1.85
2017-01-27T00:23:16.900Z,-1.93
2017-01-27T00:24:16.888Z,-1.95
2017-01-27T00:25:16.860Z,-1.92
2017-01-27T00:26:16.851Z,-2
2017-01-27T00:27:16.836Z,-1.98
2017-01-27T00:28:16.803Z,-2.03
2017-01-27T00:29:16.790Z,-2.11
2017-01-27T00:30:16.388Z,-2.06
2017-01-27T00:31:16.756Z,-1.89
2017-01-27T00:32:16.360Z,-1.86
2017-01-27T00:33:16.723Z,-1.92
2017-01-27T00:34:16.707Z,-1.96
2017-01-27T00:35:16.685Z,-1.89
2017-01-27T00:36:16.658Z,-1.86
2017-01-27T00:37:16.654Z,-1.92
2017-01-27T00:38:16.269Z,-1.88
2017-01-27T00:39:16.609Z,-1.83
2017-01-27T00:40:16.613Z,-1.65
2017-01-27T00:41:16.572Z,-1.65
2017-01-27T00:42:16.173Z,-1.75
2017-01-27T00:43:16.554Z,-1.78
2017-01-27T00:44:16.527Z,-1.74
2017-01-27T00:45:16.131Z,-1.67
2017-01-27T00:46:16.123Z,-1.85
2017-01-27T00:47:16.473Z,-1.93
2017-01-27T00:48:16.464Z,-1.78
2017-01-27T00:49:16.046Z,-1.86
2017-01-27T00:50:16.422Z,-1.82
2017-01-27T00:51:16.015Z,-1.75
2017-01-27T00:52:16.005Z,-1.75
2017-01-27T00:53:15.600Z,-1.83
2017-01-27T00:54:16.361Z,-1.92
2017-01-27T00:55:15.946Z,-2
2017-01-27T00:56:16.317Z,-2
2017-01-27T00:57:15.916Z,-2.03
2017-01-27T00:58:15.901Z,-2.06
2017-01-27T00:59:15.494Z,-2.06
2017-01-27T01:00:15.851Z,-2.01
2017-01-27T01:01:15.839Z,-2.07
2017-01-27T01:02:15.820Z,-1.89
2017-01-27T01:03:16.198Z,-1.77
2017-01-27T01:04:16.161Z,-1.68
2017-01-27T01:05:15.770Z,-1.65
2017-01-27T01:06:15.742Z,-1.68
2017-01-27T01:07:16.149Z,-1.64
2017-01-27T01:08:16.107Z,-1.64
2017-01-27T01:09:16.091Z,-1.62
2017-01-27T01:10:15.676Z,-1.75
2017-01-27T01:11:16.067Z,-1.71
2017-01-27T01:12:15.644Z,-1.89
2017-01-27T01:13:16.005Z,-2
2017-01-27T01:14:15.986Z,-2.24
2017-01-27T01:15:15.990Z,-2.33
2017-01-27T01:16:15.959Z,-2.43
2017-01-27T01:17:15.926Z,-2.4
2017-01-27T01:18:15.923Z,-2.28
2017-01-27T01:19:15.529Z,-2.43
2017-01-27T01:20:15.887Z,-2.4
2017-01-27T01:21:15.873Z,-2.5
2017-01-27T01:22:15.853Z,-2.64
2017-01-27T01:23:15.831Z,-2.62
2017-01-27T01:24:15.429Z,-2.65
2017-01-27T01:25:15.783Z,-2.53
2017-01-27T01:26:15.782Z,-2.5
2017-01-27T01:27:15.755Z,-2.5
2017-01-27T01:28:15.353Z,-2.59
2017-01-27T01:29:15.729Z,-2.61
2017-01-27T01:30:15.321Z,-2.69
2017-01-27T01:31:15.308Z,-2.72
2017-01-27T01:32:15.662Z,-2.72
2017-01-27T01:33:15.664Z,-2.86
2017-01-27T01:34:15.638Z,-2.58
2017-01-27T01:35:15.619Z,-2.59
2017-01-27T01:36:15.598Z,-2.5
2017-01-27T01:37:15.196Z,-2.33
2017-01-27T01:38:15.553Z,-2.37
2017-01-27T01:39:15.544Z,-2.28
2017-01-27T01:40:15.526Z,-2.24
2017-01-27T01:41:15.128Z,-2.21
2017-01-27T01:42:15.115Z,-2.22
2017-01-27T01:43:15.088Z,-2.22
2017-01-27T01:44:15.466Z,-2.03
2017-01-27T01:45:15.043Z,-1.88
2017-01-27T01:46:15.041Z,-1.9
2017-01-27T01:47:15.032Z,-1.92
2017-01-27T01:48:15.401Z,-1.96
2017-01-27T01:49:15.358Z,-2.04
2017-01-27T01:50:15.344Z,-2.04
2017-01-27T01:51:14.951Z,-1.93
2017-01-27T01:52:15.317Z,-1.85
2017-01-27T01:53:14.912Z,-1.88
2017-01-27T01:54:15.289Z,-1.92
2017-01-27T01:55:14.877Z,-1.89
2017-01-27T01:56:15.236Z,-2.01
2017-01-27T01:57:14.852Z,-2.04
2017-01-27T01:58:15.221Z,-2.18
2017-01-27T01:59:15.186Z,-2.18
2017-01-27T02:00:14.797Z,-2.07
2017-01-27T02:01:14.779Z,-2.06
2017-01-27T02:02:14.757Z,-2.03
2017-01-27T02:03:14.743Z,-2.06
2017-01-27T02:04:15.108Z,-1.9
2017-01-27T02:05:15.093Z,-2.04
2017-01-27T02:06:14.696Z,-1.9
2017-01-27T02:07:14.666Z,-1.83
2017-01-27T02:08:15.051Z,-1.71
2017-01-27T02:09:15.030Z,-1.7
2017-01-27T02:10:14.625Z,-1.49
2017-01-27T02:11:14.971Z,-1.54
2017-01-27T02:12:14.965Z,-1.41
2017-01-27T02:13:14.959Z,-1.53
2017-01-27T02:14:14.923Z,-1.53
2017-01-27T02:15:14.536Z,-1.62
2017-01-27T02:16:14.911Z,-1.67
2017-01-27T02:17:14.492Z,-1.57
2017-01-27T02:18:14.862Z,-1.67
2017-01-27T02:19:14.831Z,-1.7
2017-01-27T02:20:14.448Z,-1.62
2017-01-27T02:21:14.810Z,-1.7
2017-01-27T02:22:14.406Z,-1.75
2017-01-27T02:23:14.765Z,-1.75
2017-01-27T02:24:14.749Z,-1.62
2017-01-27T02:25:14.348Z,-1.64
2017-01-27T02:26:14.722Z,-1.71
2017-01-27T02:27:14.720Z,-1.67
2017-01-27T02:28:14.682Z,-1.7
2017-01-27T02:29:14.670Z,-1.68
2017-01-27T02:30:14.269Z,-1.68
2017-01-27T02:31:14.260Z,-1.47
2017-01-27T02:32:14.631Z,-1.51
2017-01-27T02:33:14.598Z,-1.36
2017-01-27T02:34:14.582Z,-1.53
2017-01-27T02:35:14.561Z,-1.67
2017-01-27T02:36:14.537Z,-1.82
2017-01-27T02:37:14.531Z,-1.9
2017-01-27T02:38:14.134Z,-1.89
2017-01-27T02:39:14.483Z,-1.88
2017-01-27T02:40:14.093Z,-1.75
2017-01-27T02:41:14.488Z,-1.67
2017-01-27T02:42:14.061Z,-1.62
2017-01-27T02:43:14.433Z,-1.62
2017-01-27T02:44:14.027Z,-1.77
2017-01-27T02:45:14.394Z,-1.82
2017-01-27T02:46:13.982Z,-1.65
2017-01-27T02:47:13.963Z,-1.67
2017-01-27T02:48:13.954Z,-1.62
2017-01-27T02:49:13.937Z,-1.57
2017-01-27T02:50:13.921Z,-1.54
2017-01-27T02:51:14.287Z,-1.49
2017-01-27T02:52:13.492Z,-1.41
2017-01-27T02:53:14.243Z,-1.38
2017-01-27T02:54:14.242Z,-1.33
2017-01-27T02:55:13.840Z,-1.32
2017-01-27T02:56:13.820Z,-1.31
2017-01-27T02:57:14.192Z,-1.38
2017-01-27T02:58:14.166Z,-1.39
2017-01-27T02:59:14.151Z,-1.41
2017-01-27T03:00:14.136Z,-1.5
2017-01-27T03:01:13.729Z,-1.53
2017-01-27T03:02:13.335Z,-1.7
2017-01-27T03:03:14.095Z,-1.77
2017-01-27T03:04:14.071Z,-1.85
2017-01-27T03:05:13.663Z,-1.88
2017-01-27T03:06:14.029Z,-1.8
2017-01-27T03:07:14.014Z,-1.71
2017-01-27T03:08:13.610Z,-1.7
2017-01-27T03:09:13.591Z,-1.54
2017-01-27T03:10:13.585Z,-1.59
2017-01-27T03:11:13.569Z,-1.5
2017-01-27T03:12:13.926Z,-1.46
2017-01-27T03:13:13.920Z,-1.5
2017-01-27T03:14:13.892Z,-1.5
2017-01-27T03:15:13.885Z,-1.51
2017-01-27T03:16:13.482Z,-1.57
2017-01-27T03:17:13.841Z,-1.49
2017-01-27T03:18:13.816Z,-1.62
2017-01-27T03:19:13.804Z,-1.65
2017-01-27T03:20:13.800Z,-1.67
2017-01-27T03:21:13.773Z,-1.57
2017-01-27T03:22:13.379Z,-1.57
2017-01-27T03:23:13.346Z,-1.59
2017-01-27T03:24:13.731Z,-1.62
2017-01-27T03:25:13.312Z,-1.62
2017-01-27T03:26:13.678Z,-1.62
2017-01-27T03:27:13.667Z,-1.5
2017-01-27T03:28:13.650Z,-1.61
2017-01-27T03:29:13.242Z,-1.61
2017-01-27T03:30:13.220Z,-1.65
2017-01-27T03:31:13.604Z,-1.61
2017-01-27T03:32:13.605Z,-1.54
2017-01-27T03:33:13.574Z,-1.57
2017-01-27T03:34:13.165Z,-1.57
2017-01-27T03:35:13.527Z,-1.68
2017-01-27T03:36:13.522Z,-1.75
2017-01-27T03:37:13.490Z,-1.62
2017-01-27T03:38:13.095Z,-1.68
2017-01-27T03:39:13.453Z,-1.67
2017-01-27T03:40:13.444Z,-1.68
2017-01-27T03:41:13.443Z,-1.41
2017-01-27T03:42:13.411Z,-1.47
2017-01-27T03:43:13.382Z,-1.47
2017-01-27T03:44:13.377Z,-1.44
2017-01-27T03:45:13.356Z,-1.39
2017-01-27T03:46:13.340Z,-1.5
2017-01-27T03:47:13.326Z,-1.38
2017-01-27T03:48:13.303Z,-1.29
2017-01-27T03:49:12.896Z,-1.36
2017-01-27T03:50:12.892Z,-1.2
2017-01-27T03:51:13.266Z,-1.13
2017-01-27T03:52:13.237Z,-1.21
2017-01-27T03:53:13.210Z,-1.15
2017-01-27T03:54:13.194Z,-1.13
2017-01-27T03:55:13.173Z,-1.25
2017-01-27T03:56:13.184Z,-1.28
2017-01-27T03:57:13.159Z,-1.32
2017-01-27T03:58:13.127Z,-1.32
2017-01-27T03:59:13.107Z,-1.23
2017-01-27T04:00:13.097Z,-1.23
2017-01-27T04:01:13.089Z,-1.21
2017-01-27T04:02:13.056Z,-1.29
2017-01-27T04:03:12.670Z,-1.32
2017-01-27T04:04:12.655Z,-1.32
2017-01-27T04:05:13.008Z,-1.41
2017-01-27T04:06:12.988Z,-1.41
2017-01-27T04:07:12.982Z,-1.44
2017-01-27T04:08:12.995Z,-1.53
2017-01-27T04:09:12.952Z,-1.53
2017-01-27T04:10:12.930Z,-1.5
2017-01-27T04:11:12.924Z,-1.43
2017-01-27T04:12:12.887Z,-1.49
2017-01-27T04:13:12.875Z,-1.36
2017-01-27T04:14:12.859Z,-1.5
2017-01-27T04:15:12.856Z,-1.51
2017-01-27T04:16:12.839Z,-1.51
2017-01-27T04:17:12.810Z,-1.36
2017-01-27T04:18:12.796Z,-1.46
2017-01-27T04:19:12.775Z,-1.38
2017-01-27T04:20:12.748Z,-1.39
2017-01-27T04:21:12.745Z,-1.35
2017-01-27T04:22:12.727Z,-1.29
2017-01-27T04:23:12.710Z,-1.14
2017-01-27T04:24:12.686Z,-1.15
2017-01-27T04:25:12.685Z,-1.18
2017-01-27T04:26:12.649Z,-1.32
2017-01-27T04:27:12.628Z,-1.28
2017-01-27T04:28:12.649Z,-1.39
2017-01-27T04:29:12.609Z,-1.35
2017-01-27T04:30:12.596Z,-1.31
2017-01-27T04:31:12.559Z,-1.38
2017-01-27T04:32:12.553Z,-1.23
2017-01-27T04:33:12.541Z,-1.29
2017-01-27T04:34:12.520Z,-1.43
2017-01-27T04:35:12.517Z,-1.5
2017-01-27T04:36:12.503Z,-1.54
2017-01-27T04:37:12.475Z,-1.7
2017-01-27T04:38:12.070Z,-1.85
2017-01-27T04:39:12.059Z,-1.71
2017-01-27T04:40:12.051Z,-1.68
2017-01-27T04:41:12.386Z,-1.65
2017-01-27T04:42:11.986Z,-1.75
2017-01-27T04:43:12.375Z,-1.74
2017-01-27T04:44:11.962Z,-1.75
2017-01-27T04:45:12.337Z,-1.88
2017-01-27T04:46:12.314Z,-1.78
2017-01-27T04:47:12.298Z,-1.71
2017-01-27T04:48:12.279Z,-1.7
2017-01-27T04:49:11.881Z,-1.62
2017-01-27T04:50:11.856Z,-1.62
2017-01-27T04:51:12.227Z,-1.39
2017-01-27T04:52:12.203Z,-1.36
2017-01-27T04:53:11.817Z,-1.36
2017-01-27T04:54:11.776Z,-1.28
2017-01-27T04:55:12.152Z,-1.38
2017-01-27T04:56:12.144Z,-1.49
2017-01-27T04:57:11.725Z,-1.54
2017-01-27T04:58:11.709Z,-1.39
2017-01-27T04:59:12.072Z,-1.31
2017-01-27T05:00:11.672Z,-1.21
2017-01-27T05:01:12.057Z,-1.05
2017-01-27T05:02:11.648Z,-1.2
2017-01-27T05:03:12.022Z,-1.18
2017-01-27T05:04:11.997Z,-1.18
2017-01-27T05:05:12.001Z,-1.14
2017-01-27T05:06:11.571Z,-1.14
2017-01-27T05:07:11.980Z,-1.13
2017-01-27T05:08:11.925Z,-1.18
2017-01-27T05:09:11.901Z,-1.08
2017-01-27T05:10:11.513Z,-1.13
2017-01-27T05:11:11.884Z,-1.11
2017-01-27T05:12:11.472Z,-1.11
2017-01-27T05:13:11.838Z,-1.18
2017-01-27T05:14:11.444Z,-1.32
2017-01-27T05:15:11.447Z,-1.38
2017-01-27T05:16:11.791Z,-1.41
2017-01-27T05:17:11.775Z,-1.41
2017-01-27T05:18:11.745Z,-1.46
2017-01-27T05:19:11.734Z,-1.41
2017-01-27T05:20:11.331Z,-1.36
2017-01-27T05:21:11.694Z,-1.44
2017-01-27T05:22:11.296Z,-1.53
2017-01-27T05:23:11.665Z,-1.68
2017-01-27T05:24:11.650Z,-1.64
2017-01-27T05:25:11.637Z,-1.61
2017-01-27T05:26:11.229Z,-1.67
2017-01-27T05:27:11.595Z,-1.72
2017-01-27T05:28:11.592Z,-1.89
2017-01-27T05:29:11.565Z,-1.9
2017-01-27T05:30:11.541Z,-1.92
2017-01-27T05:31:11.146Z,-2.01
2017-01-27T05:32:11.513Z,-1.9
2017-01-27T05:33:11.488Z,-1.93
2017-01-27T05:34:11.476Z,-2.06
2017-01-27T05:35:11.460Z,-2.22
2017-01-27T05:36:11.050Z,-2.22
2017-01-27T05:37:11.043Z,-2.25
2017-01-27T05:38:11.027Z,-2.22
2017-01-27T05:39:11.389Z,-2.1
2017-01-27T05:40:10.997Z,-2.07
2017-01-27T05:41:10.959Z,-1.86
2017-01-27T05:42:10.955Z,-1.7
2017-01-27T05:43:11.319Z,-1.61
2017-01-27T05:44:11.311Z,-1.57
2017-01-27T05:45:10.904Z,-1.74
2017-01-27T05:46:11.269Z,-1.75
2017-01-27T05:47:11.242Z,-1.77
2017-01-27T05:48:10.857Z,-1.83
2017-01-27T05:49:10.833Z,-1.7
2017-01-27T05:50:10.803Z,-1.62
2017-01-27T05:51:11.188Z,-1.75
2017-01-27T05:52:11.151Z,-1.74
2017-01-27T05:53:10.768Z,-1.75
2017-01-27T05:54:10.744Z,-1.88
2017-01-27T05:55:11.118Z,-1.88
2017-01-27T05:56:11.101Z,-1.9
2017-01-27T05:57:11.091Z,-1.9
2017-01-27T05:58:10.672Z,-1.98
2017-01-27T05:59:11.049Z,-2.07
2017-01-27T06:00:11.032Z,-2.03
2017-01-27T06:01:11.004Z,-2.03
2017-01-27T06:02:10.589Z,-1.92
2017-01-27T06:03:10.964Z,-1.8
2017-01-27T06:04:10.977Z,-1.72
2017-01-27T06:05:10.939Z,-1.8
2017-01-27T06:06:10.916Z,-1.9
2017-01-27T06:07:10.507Z,-2.01
2017-01-27T06:08:10.870Z,-1.93
2017-01-27T06:09:10.866Z,-1.98
2017-01-27T06:10:10.855Z,-2.25
2017-01-27T06:11:10.822Z,-2.28
2017-01-27T06:12:10.802Z,-2.22
2017-01-27T06:13:10.798Z,-2.19
2017-01-27T06:14:10.776Z,-2.25
2017-01-27T06:15:10.752Z,-2.06
2017-01-27T06:16:10.752Z,-2.01
2017-01-27T06:17:10.725Z,-1.93
2017-01-27T06:18:10.722Z,-1.89
2017-01-27T06:19:10.681Z,-1.88
2017-01-27T06:20:10.672Z,-1.93
2017-01-27T06:21:10.655Z,-2.03
2017-01-27T06:22:10.645Z,-1.98
2017-01-27T06:23:10.611Z,-1.92
2017-01-27T06:24:10.590Z,-1.8
2017-01-27T06:25:10.596Z,-1.62
2017-01-27T06:26:10.568Z,-1.5
2017-01-27T06:27:10.547Z,-1.41
2017-01-27T06:28:10.523Z,-1.44
2017-01-27T06:29:10.523Z,-1.47
2017-01-27T06:30:10.101Z,-1.41
2017-01-27T06:31:10.100Z,-1.33
2017-01-27T06:32:10.462Z,-1.33
2017-01-27T06:33:10.437Z,-1.33
2017-01-27T06:34:10.422Z,-1.29
2017-01-27T06:35:10.407Z,-1.29
2017-01-27T06:36:10.383Z,-1.35
2017-01-27T06:37:10.373Z,-1.31
2017-01-27T06:38:10.341Z,-1.33
2017-01-27T06:39:10.335Z,-1.38
2017-01-27T06:40:09.959Z,-1.32
2017-01-27T06:41:09.931Z,-1.38
2017-01-27T06:42:09.899Z,-1.54
2017-01-27T06:43:09.867Z,-1.51
2017-01-27T06:44:10.249Z,-1.49
2017-01-27T06:45:09.840Z,-1.41
2017-01-27T06:46:10.225Z,-1.49
2017-01-27T06:47:10.195Z,-1.38
2017-01-27T06:48:10.168Z,-1.49
2017-01-27T06:49:09.773Z,-1.5
2017-01-27T06:50:09.766Z,-1.59
2017-01-27T06:51:10.131Z,-1.59
2017-01-27T06:52:10.090Z,-1.41
2017-01-27T06:53:10.087Z,-1.33
2017-01-27T06:54:10.066Z,-1.36
2017-01-27T06:55:10.058Z,-1.21
2017-01-27T06:56:10.031Z,-1.2
2017-01-27T06:57:09.635Z,-1.15
2017-01-27T06:58:09.226Z,-1.15
2017-01-27T06:59:09.980Z,-1.08
2017-01-27T07:00:09.973Z,-0.96
2017-01-27T07:01:09.948Z,-0.74
2017-01-27T07:02:09.548Z,-0.58
2017-01-27T07:03:09.899Z,-0.34
2017-01-27T07:04:09.881Z,-0.23
2017-01-27T07:05:09.905Z,-0.05
2017-01-27T07:06:09.856Z,0.05
2017-01-27T07:07:09.861Z,-0.05
2017-01-27T07:08:09.817Z,0.02
2017-01-27T07:09:09.822Z,-0.09
2017-01-27T07:10:09.782Z,-0.02
2017-01-27T07:11:09.784Z,-0.05
2017-01-27T07:12:09.762Z,-0.09
2017-01-27T07:13:09.362Z,0.1
2017-01-27T07:14:09.339Z,0.28
2017-01-27T07:15:09.707Z,0.67
2017-01-27T07:16:09.694Z,0.96
2017-01-27T07:17:09.678Z,0.89
2017-01-27T07:18:09.673Z,0.77
2017-01-27T07:19:09.632Z,0.9
2017-01-27T07:20:09.272Z,1.18
2017-01-27T07:21:09.608Z,1.14
2017-01-27T07:22:09.611Z,1.26
2017-01-27T07:23:09.571Z,1.5
2017-01-27T07:24:09.179Z,1.65
2017-01-27T07:25:09.548Z,1.81
2017-01-27T07:26:09.142Z,2.09
2017-01-27T07:27:09.516Z,2.04
2017-01-27T07:28:09.527Z,2.23
2017-01-27T07:29:09.481Z,2.37
2017-01-27T07:30:09.081Z,2.55
2017-01-27T07:31:09.452Z,2.74
2017-01-27T07:32:09.050Z,3.02
2017-01-27T07:33:09.419Z,3.1
2017-01-27T07:34:09.410Z,3.25
2017-01-27T07:35:09.381Z,3.67
2017-01-27T07:36:09.378Z,3.9
2017-01-27T07:37:08.980Z,4.11
2017-01-27T07:38:09.355Z,4.26
2017-01-27T07:39:09.333Z,4.59
2017-01-27T07:40:09.324Z,4.8
2017-01-27T07:41:09.313Z,4.8
2017-01-27T07:42:09.276Z,4.57
2017-01-27T07:43:09.261Z,4.74
2017-01-27T07:44:09.277Z,4.68
2017-01-27T07:45:09.256Z,4.49
2017-01-27T07:46:09.223Z,4.25
2017-01-27T07:47:09.231Z,4.56
2017-01-27T07:48:09.209Z,4.69
2017-01-27T07:49:09.189Z,4.91
2017-01-27T07:50:09.171Z,5.17
2017-01-27T07:51:09.169Z,5.14
2017-01-27T07:52:09.160Z,5.15
2017-01-27T07:53:09.139Z,5.08
2017-01-27T07:54:09.134Z,5.22
2017-01-27T07:55:09.126Z,5.32
2017-01-27T07:56:09.110Z,5.44
2017-01-27T07:57:09.107Z,5.48
2017-01-27T07:58:08.688Z,5.81
2017-01-27T07:59:09.067Z,5.98
2017-01-27T08:00:09.069Z,5.87
2017-01-27T08:01:09.039Z,5.98
2017-01-27T08:02:09.015Z,6.14
2017-01-27T08:03:09.008Z,6.58
2017-01-27T08:04:08.992Z,6.54
2017-01-27T08:05:08.975Z,6.35
2017-01-27T08:06:08.975Z,5.88
2017-01-27T08:07:08.963Z,6.02
2017-01-27T08:08:08.566Z,6.55
2017-01-27T08:09:08.928Z,6.75
2017-01-27T08:10:08.547Z,6.75
2017-01-27T08:11:08.915Z,6.68
2017-01-27T08:12:08.902Z,6.71
2017-01-27T08:13:08.913Z,6.89
2017-01-27T08:14:08.880Z,6.82
2017-01-27T08:15:08.870Z,6.68
2017-01-27T08:16:08.857Z,6.24
2017-01-27T08:17:08.860Z,5.38
2017-01-27T08:18:08.834Z,5.22
2017-01-27T08:19:08.816Z,5.29
2017-01-27T08:20:08.813Z,5.58
2017-01-27T08:21:08.793Z,5.98
2017-01-27T08:22:08.800Z,6.4
2017-01-27T08:23:08.797Z,6.97
2017-01-27T08:24:08.791Z,7.45
2017-01-27T08:25:08.745Z,7.84
2017-01-27T08:26:08.752Z,8.14
2017-01-27T08:27:08.729Z,7.92
2017-01-27T08:28:08.722Z,8.03
2017-01-27T08:29:08.751Z,8.13
2017-01-27T08:30:08.332Z,8
2017-01-27T08:31:08.687Z,7.32
2017-01-27T08:32:08.697Z,6.36
2017-01-27T08:33:08.672Z,5.63
2017-01-27T08:34:08.666Z,4.91
2017-01-27T08:35:08.663Z,4.79
2017-01-27T08:36:08.254Z,5.14
2017-01-27T08:37:08.640Z,5.78
2017-01-27T08:38:08.242Z,6.53
2017-01-27T08:39:08.223Z,7.11
2017-01-27T08:40:08.225Z,7.11
2017-01-27T08:41:08.594Z,7.44
2017-01-27T08:42:08.577Z,7.47
2017-01-27T08:43:08.577Z,7.54
2017-01-27T08:44:08.572Z,7.54
2017-01-27T08:45:08.176Z,7.41
2017-01-27T08:46:08.552Z,6.69
2017-01-27T08:47:08.539Z,6.55
2017-01-27T08:48:08.122Z,6.51
2017-01-27T08:49:08.514Z,6.38
2017-01-27T08:50:08.489Z,6.4
2017-01-27T08:51:08.487Z,6.21
2017-01-27T08:52:08.082Z,6.42
2017-01-27T08:53:08.078Z,6.6
2017-01-27T08:54:08.456Z,7.09
2017-01-27T08:55:08.444Z,7.58
2017-01-27T08:56:08.441Z,8.03
2017-01-27T08:57:08.029Z,8.67
2017-01-27T08:58:08.025Z,8.98
2017-01-27T08:59:08.403Z,9.31
2017-01-27T09:00:08.007Z,9.78
2017-01-27T09:01:07.985Z,9.92
2017-01-27T09:02:08.381Z,9.89
2017-01-27T09:03:07.971Z,9.44
2017-01-27T09:04:07.957Z,9.12
2017-01-27T09:05:08.338Z,8.57
2017-01-27T09:06:08.321Z,8.6
2017-01-27T09:07:07.927Z,8.97
2017-01-27T09:08:08.324Z,9.1
2017-01-27T09:09:07.902Z,9.12
2017-01-27T09:10:07.908Z,9.37
2017-01-27T09:11:07.899Z,9.68
2017-01-27T09:12:07.885Z,10.02
2017-01-27T09:13:08.256Z,10.16
2017-01-27T09:14:08.251Z,10.02
2017-01-27T09:15:07.852Z,9.89
2017-01-27T09:16:08.223Z,10.07
2017-01-27T09:17:07.831Z,10.24
2017-01-27T09:18:07.822Z,10.38
2017-01-27T09:19:08.188Z,10.55
2017-01-27T09:20:08.202Z,10.6
2017-01-27T09:21:08.170Z,10.76
2017-01-27T09:22:08.172Z,11.09
2017-01-27T09:23:08.176Z,10.87
2017-01-27T09:24:08.167Z,10.52
2017-01-27T09:25:08.157Z,10.42
2017-01-27T09:26:07.756Z,10.35
2017-01-27T09:27:08.130Z,10.14
2017-01-27T09:28:08.113Z,10.17
2017-01-27T09:29:08.101Z,10.43
2017-01-27T09:30:07.776Z,10.75
2017-01-27T09:31:08.089Z,11.06
2017-01-27T09:32:08.106Z,11.16
2017-01-27T09:33:08.072Z,11.09
2017-01-27T09:34:08.069Z,11.28
2017-01-27T09:35:08.061Z,11.48
2017-01-27T09:36:07.273Z,11.67
2017-01-27T09:37:08.045Z,11.88
2017-01-27T09:38:08.037Z,12.3
2017-01-27T09:39:08.028Z,12.54
2017-01-27T09:40:07.624Z,12.46
2017-01-27T09:41:08.021Z,12.7
2017-01-27T09:42:08.006Z,12.58
2017-01-27T09:43:08.007Z,12.89
2017-01-27T09:44:07.992Z,12.89
2017-01-27T09:45:07.605Z,12.94
2017-01-27T09:46:07.984Z,13.04
2017-01-27T09:47:07.966Z,13.04
2017-01-27T09:48:07.963Z,12.81
2017-01-27T09:49:07.953Z,12.55
2017-01-27T09:50:07.561Z,12.43
2017-01-27T09:51:07.949Z,12.37
2017-01-27T09:52:07.928Z,12.13
2017-01-27T09:53:07.937Z,11.9
2017-01-27T09:54:07.930Z,11.63
2017-01-27T09:55:07.904Z,11.46
2017-01-27T09:56:07.896Z,10.9
2017-01-27T09:57:07.899Z,10.91
2017-01-27T09:58:07.891Z,11.28
2017-01-27T09:59:07.893Z,11.48
2017-01-27T10:00:07.889Z,11.44
2017-01-27T10:01:07.873Z,11.62
2017-01-27T10:02:07.876Z,11.88
2017-01-27T10:03:07.845Z,12.15
2017-01-27T10:04:07.846Z,12.61
2017-01-27T10:05:07.842Z,12.67
2017-01-27T10:06:07.848Z,12.74
2017-01-27T10:07:07.826Z,12.44
2017-01-27T10:08:07.815Z,12.13
2017-01-27T10:09:07.812Z,11.66
2017-01-27T10:10:07.795Z,11.44
2017-01-27T10:11:07.810Z,11.38
2017-01-27T10:12:07.781Z,11.13
2017-01-27T10:13:07.799Z,11.01
2017-01-27T10:14:07.819Z,11.27
2017-01-27T10:15:07.774Z,11.12
2017-01-27T10:16:07.374Z,11.26
2017-01-27T10:17:06.990Z,11.12
2017-01-27T10:18:07.756Z,11.08
2017-01-27T10:19:07.747Z,11.24
2017-01-27T10:20:07.754Z,11.16
2017-01-27T10:21:07.729Z,11.11
2017-01-27T10:22:07.721Z,11.17
2017-01-27T10:23:07.715Z,11.27
2017-01-27T10:24:07.699Z,11.27
2017-01-27T10:25:07.311Z,11.21
2017-01-27T10:26:07.322Z,11.09
2017-01-27T10:27:07.688Z,11.16
2017-01-27T10:28:07.302Z,10.9
2017-01-27T10:29:07.663Z,10.76
2017-01-27T10:30:07.675Z,10.69
2017-01-27T10:31:07.658Z,10.81
2017-01-27T10:32:07.647Z,10.93
2017-01-27T10:33:07.652Z,11.17
2017-01-27T10:34:07.641Z,10.66
2017-01-27T10:35:07.623Z,10.16
2017-01-27T10:36:07.245Z,9.73
2017-01-27T10:37:07.611Z,8.32
2017-01-27T10:38:07.221Z,8.31
2017-01-27T10:39:07.591Z,8.65
2017-01-27T10:40:07.585Z,9.5
2017-01-27T10:41:07.192Z,10.01
2017-01-27T10:42:07.571Z,9.55
2017-01-27T10:43:07.579Z,9.17
2017-01-27T10:44:07.566Z,8.8
2017-01-27T10:45:07.548Z,8.27
2017-01-27T10:46:07.160Z,8.64
2017-01-27T10:47:07.131Z,8.7
2017-01-27T10:48:07.519Z,7.96
2017-01-27T10:49:07.502Z,7.57
2017-01-27T10:50:07.492Z,7.12
2017-01-27T10:51:07.505Z,6.87
2017-01-27T10:52:07.103Z,6.96
2017-01-27T10:53:07.694Z,7.11
2017-01-27T10:54:07.462Z,7.44
2017-01-27T10:55:07.474Z,7.82
2017-01-27T10:56:07.432Z,8.06
2017-01-27T10:57:07.433Z,8.04
2017-01-27T10:58:07.432Z,8.47
2017-01-27T10:59:07.409Z,8.64
2017-01-27T11:00:07.416Z,8.63
2017-01-27T11:01:07.398Z,8.5
2017-01-27T11:02:07.413Z,8.5
2017-01-27T11:03:07.385Z,8.5
2017-01-27T11:04:07.363Z,8.73
2017-01-27T11:05:07.354Z,8.49
2017-01-27T11:06:07.540Z,8.24
2017-01-27T11:07:07.336Z,7.71
2017-01-27T11:08:07.347Z,7.62
2017-01-27T11:09:07.317Z,8.24
2017-01-27T11:10:06.917Z,8.36
2017-01-27T11:11:07.294Z,8.89
2017-01-27T11:12:07.276Z,9.01
2017-01-27T11:13:07.264Z,9.35
2017-01-27T11:14:07.254Z,9.22
2017-01-27T11:15:07.254Z,8.43
2017-01-27T11:16:07.256Z,8.06
2017-01-27T11:17:07.231Z,8.36
2017-01-27T11:18:07.229Z,8.37
2017-01-27T11:19:07.217Z,8.29
2017-01-27T11:20:07.204Z,8
2017-01-27T11:21:07.194Z,6.99
2017-01-27T11:22:07.185Z,6.55
2017-01-27T11:23:07.183Z,7.23
2017-01-27T11:24:06.812Z,7.15
2017-01-27T11:25:07.156Z,5.35
2017-01-27T11:26:07.150Z,3.95
2017-01-27T11:27:07.128Z,3.89
2017-01-27T11:28:06.734Z,3.02
2017-01-27T11:29:07.109Z,2.8
2017-01-27T11:30:07.100Z,2.4
2017-01-27T11:31:07.298Z,2.8
2017-01-27T11:32:07.064Z,2.73
2017-01-27T11:33:07.065Z,3.31
2017-01-27T11:34:06.672Z,3.62
2017-01-27T11:35:07.037Z,4.21
2017-01-27T11:36:06.639Z,3.81
2017-01-27T11:37:07.247Z,3.9
2017-01-27T11:38:20.658Z,3.15
2017-01-27T11:39:06.970Z,2.81
2017-01-27T11:40:06.996Z,2.73
2017-01-27T11:41:06.964Z,3.71
2017-01-27T11:42:06.936Z,4.54
2017-01-27T11:43:06.556Z,5.04
2017-01-27T11:44:06.524Z,5.45
2017-01-27T11:45:06.914Z,5.49
2017-01-27T11:46:06.507Z,3.82
2017-01-27T11:47:06.492Z,3.86
2017-01-27T11:48:07.076Z,4.61
2017-01-27T11:49:07.058Z,5.19
2017-01-27T11:50:06.833Z,4.86
2017-01-27T11:51:06.827Z,5.24
2017-01-27T11:52:06.816Z,4.44
2017-01-27T11:53:06.801Z,4.96
2017-01-27T11:54:06.786Z,5.4
2017-01-27T11:55:06.788Z,6.27
2017-01-27T11:56:06.774Z,6.94
2017-01-27T11:57:05.972Z,7.62
2017-01-27T11:58:06.350Z,7.18
2017-01-27T11:59:06.737Z,5.77
2017-01-27T12:00:06.724Z,5.81
2017-01-27T12:01:06.707Z,6.55
2017-01-27T12:02:06.306Z,6.97
2017-01-27T12:03:06.315Z,7.26
2017-01-27T12:04:06.664Z,6.97
2017-01-27T12:05:06.650Z,7.15
2017-01-27T12:06:06.649Z,7.44
2017-01-27T12:07:06.834Z,6.02
2017-01-27T12:08:06.624Z,5.12
2017-01-27T12:09:06.618Z,4.94
2017-01-27T12:10:06.599Z,5.52
2017-01-27T12:11:06.590Z,5.66
2017-01-27T12:12:06.566Z,5.17
2017-01-27T12:13:06.395Z,5.65
2017-01-27T12:14:06.381Z,5.81
2017-01-27T12:15:06.155Z,5.27
2017-01-27T12:16:06.535Z,5.6
2017-01-27T12:17:06.512Z,5.04
2017-01-27T12:18:06.509Z,5.19
2017-01-27T12:19:06.484Z,4.97
2017-01-27T12:20:06.475Z,4.32
2017-01-27T12:21:06.455Z,5.06
2017-01-27T12:22:06.462Z,4.68
2017-01-27T12:23:06.430Z,4.71
2017-01-27T12:24:06.426Z,4.79
2017-01-27T12:25:06.427Z,4.67
2017-01-27T12:26:06.415Z,4.79
2017-01-27T12:27:06.393Z,4.17
2017-01-27T12:28:06.370Z,4.49
2017-01-27T12:29:06.379Z,4.84
2017-01-27T12:30:06.363Z,4.17
2017-01-27T12:31:06.342Z,3.2
2017-01-27T12:32:06.323Z,2.86
2017-01-27T12:33:06.329Z,2.77
2017-01-27T12:34:06.321Z,3.12
2017-01-27T12:35:06.298Z,4.16
2017-01-27T12:36:06.291Z,4.68
2017-01-27T12:37:06.258Z,4.31
2017-01-27T12:38:06.265Z,3.89
2017-01-27T12:39:05.863Z,4.14
2017-01-27T12:40:05.844Z,4.11
2017-01-27T12:41:06.223Z,4.21
2017-01-27T12:42:06.209Z,4.84
2017-01-27T12:43:06.195Z,5.37
2017-01-27T12:44:06.173Z,5.85
2017-01-27T12:45:05.798Z,5.4
2017-01-27T12:46:06.161Z,5.24
2017-01-27T12:47:06.144Z,5.75
2017-01-27T12:48:06.134Z,6.16
2017-01-27T12:49:06.320Z,6.54
2017-01-27T12:50:06.315Z,5.52
2017-01-27T12:51:19.771Z,3.57
2017-01-27T12:52:05.693Z,2.84
2017-01-27T12:53:05.680Z,2.73
2017-01-27T12:54:06.046Z,2.08
2017-01-27T12:55:06.254Z,1.95
2017-01-27T12:56:06.252Z,2.92
2017-01-27T12:57:06.030Z,3.08
2017-01-27T12:58:06.023Z,2.97
2017-01-27T12:59:05.987Z,3.41
2017-01-27T13:00:05.613Z,4.16
2017-01-27T13:01:05.970Z,4.64
2017-01-27T13:02:05.967Z,5.05
2017-01-27T13:03:05.945Z,5.14
2017-01-27T13:04:05.937Z,4.25